Rhame, North Dakota
Current Conditions -  °F | °C
As of 6:51 PM on Friday 28 Nov 2014 (Local Time) from KBHK Reporting Station
Scattered Clouds Scattered Clouds  
Wind Chill: 50°   Ceiling: Unl
Heat Index: 50°   Visibility: 10mi
Dew Point: 30°   Wind: 15mph
Humidity: 46%   Direction: 220°SW
Pressure: 29.42"   Gusts: NA
Location:  46.23°N, 103.66°W
Report Text: KBHK 290151Z AUTO 22013KT 10SM SCT110 10/M01 A2942 RMK AO2 SLP966 T01001011
Loading
Personal Weather Stations






























Interactive Weather Map New forecast layout! Learn more

10-Day Weather Forecast

Advertisements
Track Severe Weather on mobile